createdAt,value
2017-10-13T00:01:24.990Z,2.1
2017-10-13T00:11:39.256Z,2.2
2017-10-13T00:21:53.465Z,2.5
2017-10-13T00:32:05.702Z,4.4
2017-10-13T00:42:19.620Z,2.1
2017-10-13T00:52:34.157Z,2.3
2017-10-13T01:02:46.097Z,3.0
2017-10-13T01:12:59.821Z,3.0
2017-10-13T01:23:13.832Z,1.8
2017-10-13T01:33:25.390Z,3.2
2017-10-13T01:43:37.465Z,2.8
2017-10-13T01:53:52.536Z,2.9
2017-10-13T02:04:06.161Z,3.1
2017-10-13T02:14:20.205Z,1.4
2017-10-13T02:25:05.934Z,3.3
2017-10-13T02:35:19.134Z,1.6
2017-10-13T02:45:32.646Z,3.3
2017-10-13T02:55:46.865Z,3.1
2017-10-13T03:06:00.961Z,2.2
2017-10-13T03:16:15.228Z,2.2
2017-10-13T03:26:29.162Z,2.0
2017-10-13T03:36:52.811Z,3.7
2017-10-13T03:47:06.775Z,2.5
2017-10-13T03:57:20.756Z,1.4
2017-10-13T04:07:33.944Z,2.4
2017-10-13T04:17:47.182Z,2.2
2017-10-13T04:28:00.728Z,3.5
2017-10-13T04:38:14.845Z,2.8
2017-10-13T04:48:59.290Z,3.9
2017-10-13T04:59:11.118Z,2.2
2017-10-13T05:09:24.918Z,3.2
2017-10-13T05:19:38.234Z,2.8
2017-10-13T05:29:51.294Z,2.4
2017-10-13T05:40:13.319Z,1.6
2017-10-13T05:50:26.808Z,2.3
2017-10-13T06:00:40.419Z,2.0
2017-10-13T06:10:54.511Z,2.3
2017-10-13T06:21:09.187Z,2.5
2017-10-13T06:31:22.794Z,2.3
2017-10-13T06:41:37.374Z,3.0
2017-10-13T06:51:51.764Z,2.7
2017-10-13T07:02:05.714Z,1.8
2017-10-13T07:12:20.048Z,3.2
2017-10-13T07:22:34.075Z,3.3
2017-10-13T07:32:48.312Z,7.1
2017-10-13T07:43:02.572Z,2.3
2017-10-13T07:53:16.572Z,1.7
2017-10-13T08:03:31.093Z,1.9
2017-10-13T08:13:45.569Z,2.7
2017-10-13T08:24:30.827Z,3.2
2017-10-13T08:34:45.335Z,3.5
2017-10-13T08:44:57.535Z,2.3
2017-10-13T08:55:11.808Z,3.9
2017-10-13T09:05:25.987Z,7.6
2017-10-13T09:15:40.460Z,6.3
2017-10-13T09:25:52.813Z,5.8
2017-10-13T09:36:07.023Z,8.6
2017-10-13T09:46:21.171Z,8.7
2017-10-13T09:56:35.032Z,9.3
2017-10-13T10:06:49.422Z,8.1
2017-10-13T10:17:00.519Z,5.8
2017-10-13T10:27:14.908Z,6.3
2017-10-13T10:37:28.982Z,5.9
2017-10-13T10:47:43.231Z,7.5
2017-10-13T10:57:57.696Z,5.0
2017-10-13T11:08:09.686Z,6.9
2017-10-13T11:18:55.238Z,5.6
2017-10-13T11:29:08.786Z,7.5
2017-10-13T11:39:54.266Z,6.5
2017-10-13T11:50:39.208Z,7.0
2017-10-13T12:00:54.010Z,5.2
2017-10-13T12:11:39.343Z,7.2
2017-10-13T12:22:25.802Z,3.2
2017-10-13T12:32:49.002Z,4.4
2017-10-13T12:43:02.636Z,5.6
2017-10-13T12:53:16.909Z,4.9
2017-10-13T13:03:30.813Z,6.8
2017-10-13T13:14:49.773Z,7.4
2017-10-13T13:25:03.915Z,7.3
2017-10-13T13:35:49.673Z,6.7
2017-10-13T13:46:34.648Z,5.0
2017-10-13T13:56:45.918Z,5.4
2017-10-13T14:07:00.475Z,6.9
2017-10-13T14:17:14.612Z,5.6
2017-10-13T14:27:59.841Z,5.5
2017-10-13T14:38:14.074Z,5.9
2017-10-13T14:48:59.067Z,7.7
2017-10-13T14:59:44.840Z,9.5
2017-10-13T15:10:30.792Z,8.7
2017-10-13T15:21:16.351Z,8.2
2017-10-13T15:32:03.015Z,8.6
2017-10-13T15:42:44.015Z,6.9
2017-10-13T15:53:01.101Z,7.0
2017-10-13T16:03:46.236Z,11.2
2017-10-13T16:14:00.416Z,10.7
2017-10-13T16:25:35.308Z,11.0
2017-10-13T16:35:47.337Z,11.0
2017-10-13T16:47:21.088Z,10.3
2017-10-13T16:58:07.324Z,12.1
2017-10-13T17:08:21.222Z,8.3
2017-10-13T17:19:26.534Z,11.1
2017-10-13T17:29:57.197Z,8.9
2017-10-13T17:41:00.102Z,9.8
2017-10-13T17:52:52.617Z,9.2
2017-10-13T18:04:21.369Z,11.0
2017-10-13T18:16:02.683Z,9.3
2017-10-13T18:27:09.831Z,8.5
2017-10-13T18:37:38.564Z,6.9
2017-10-13T18:48:46.745Z,4.9
2017-10-13T18:59:00.684Z,6.2
2017-10-13T19:09:15.072Z,4.1
2017-10-13T19:20:00.347Z,6.7
2017-10-13T19:30:45.137Z,6.4
2017-10-13T19:40:56.652Z,4.8
2017-10-13T19:51:10.753Z,8.8
2017-10-13T20:01:25.398Z,3.9
2017-10-13T20:12:10.855Z,6.1
2017-10-13T20:22:56.349Z,5.8
2017-10-13T20:33:41.220Z,7.9
2017-10-13T20:43:55.663Z,4.7
2017-10-13T20:54:07.108Z,7.7
2017-10-13T21:04:52.315Z,6.9
2017-10-13T21:15:05.997Z,4.1
2017-10-13T21:25:51.556Z,6.1
2017-10-13T21:36:06.109Z,5.4
2017-10-13T21:46:20.318Z,8.2
2017-10-13T21:56:36.625Z,6.5
2017-10-13T22:06:50.512Z,4.0
2017-10-13T22:17:04.584Z,6.5
2017-10-13T22:27:18.903Z,5.7
2017-10-13T22:37:33.096Z,6.3
2017-10-13T22:47:47.035Z,8.6
2017-10-13T22:58:02.397Z,7.1
2017-10-13T23:08:17.024Z,5.2
2017-10-13T23:18:30.607Z,6.2
2017-10-13T23:28:45.193Z,6.5
2017-10-13T23:38:59.410Z,7.7
2017-10-13T23:49:44.973Z,6.8
